createdAt,value
2017-08-14T00:01:48.805Z,0
2017-08-14T00:04:13.877Z,0
2017-08-14T00:06:38.091Z,0
2017-08-14T00:09:04.218Z,0
2017-08-14T00:11:19.909Z,0
2017-08-14T00:13:45.019Z,0
2017-08-14T00:16:09.104Z,0
2017-08-14T00:18:34.175Z,0
2017-08-14T00:21:00.297Z,0
2017-08-14T00:23:24.395Z,0
2017-08-14T00:25:57.376Z,0
2017-08-14T00:28:21.449Z,0
2017-08-14T00:30:45.486Z,0
2017-08-14T00:33:10.652Z,0
2017-08-14T00:35:35.784Z,0
2017-08-14T00:38:01.922Z,0
2017-08-14T00:40:26.059Z,0
2017-08-14T00:42:50.146Z,0
2017-08-14T00:45:14.129Z,0
2017-08-14T00:47:39.207Z,0
2017-08-14T00:50:03.298Z,0
2017-08-14T00:52:28.413Z,0
2017-08-14T00:57:01.320Z,0
2017-08-14T00:59:16.871Z,0
2017-08-14T01:01:39.311Z,0
2017-08-14T01:06:05.175Z,0
2017-08-14T01:08:28.177Z,0
2017-08-14T01:10:52.150Z,0
2017-08-14T01:13:16.122Z,0
2017-08-14T01:17:57.463Z,0
2017-08-14T01:20:21.490Z,0
2017-08-14T01:22:45.476Z,0
2017-08-14T01:25:11.503Z,0
2017-08-14T01:27:35.583Z,0
2017-08-14T01:29:59.563Z,0
2017-08-14T01:32:30.396Z,0
2017-08-14T01:34:54.323Z,0
2017-08-14T01:37:18.266Z,0
2017-08-14T01:39:42.360Z,0
2017-08-14T01:42:07.453Z,0
2017-08-14T01:44:31.538Z,0
2017-08-14T01:48:59.044Z,0
2017-08-14T01:51:24.140Z,0
2017-08-14T01:53:48.194Z,0
2017-08-14T01:56:12.298Z,0
2017-08-14T01:58:38.273Z,0
2017-08-14T02:01:08.809Z,0
2017-08-14T02:03:32.749Z,0
2017-08-14T02:05:58.745Z,0
2017-08-14T02:08:22.624Z,0
2017-08-14T02:10:46.560Z,0
2017-08-14T02:13:11.469Z,0
2017-08-14T02:15:35.468Z,0
2017-08-14T02:18:07.342Z,0
2017-08-14T02:20:31.306Z,0
2017-08-14T02:22:55.229Z,0
2017-08-14T02:25:19.099Z,0
2017-08-14T02:27:43.132Z,0
2017-08-14T02:30:07.065Z,0
2017-08-14T02:32:30.969Z,0
2017-08-14T02:34:56.034Z,0
2017-08-14T02:37:26.860Z,0
2017-08-14T02:39:50.820Z,0
2017-08-14T02:42:14.747Z,0
2017-08-14T02:44:38.681Z,0
2017-08-14T02:47:02.662Z,0
2017-08-14T02:49:26.566Z,0
2017-08-14T02:51:50.618Z,0
2017-08-14T02:54:14.599Z,0
2017-08-14T02:56:30.114Z,0
2017-08-14T02:58:54.029Z,0
2017-08-14T03:01:18.056Z,0
2017-08-14T03:03:41.983Z,0
2017-08-14T03:06:12.863Z,0
2017-08-14T03:08:36.817Z,0
2017-08-14T03:11:00.793Z,0
2017-08-14T03:13:24.716Z,0
2017-08-14T03:15:49.863Z,0
2017-08-14T03:18:13.831Z,0
2017-08-14T03:20:37.883Z,0
2017-08-14T03:23:01.860Z,0
2017-08-14T03:25:32.883Z,0
2017-08-14T03:27:56.844Z,0
2017-08-14T03:30:20.801Z,0
2017-08-14T03:32:44.720Z,0
2017-08-14T03:37:18.594Z,0
2017-08-14T03:39:42.565Z,0
2017-08-14T03:42:06.600Z,0
2017-08-14T03:44:30.571Z,0
2017-08-14T03:46:55.626Z,0
2017-08-14T03:49:19.575Z,0
2017-08-14T03:51:43.540Z,0
2017-08-14T03:54:07.549Z,0
2017-08-14T03:56:31.439Z,0
2017-08-14T03:58:55.333Z,0
2017-08-14T04:01:26.957Z,0
2017-08-14T04:03:50.922Z,0
2017-08-14T04:06:14.842Z,0
2017-08-14T04:08:38.903Z,0
2017-08-14T04:12:39.045Z,0
2017-08-14T04:16:40.334Z,0
2017-08-14T04:19:04.295Z,0
2017-08-14T04:21:35.218Z,0
2017-08-14T04:23:59.135Z,0
2017-08-14T04:26:23.088Z,0
2017-08-14T04:28:47.047Z,5
2017-08-14T04:33:13.427Z,5
2017-08-14T04:35:38.433Z,5
2017-08-14T04:44:25.689Z,15
2017-08-14T04:46:41.231Z,15
2017-08-14T04:48:56.846Z,20
2017-08-14T04:53:24.291Z,25
2017-08-14T04:56:03.064Z,30
2017-08-14T04:58:27.071Z,35
2017-08-14T05:05:02.441Z,45
2017-08-14T05:07:34.385Z,50
2017-08-14T05:09:50.173Z,60
2017-08-14T05:12:14.581Z,45
2017-08-14T05:14:38.913Z,40
2017-08-14T05:17:03.374Z,60
2017-08-14T05:19:27.869Z,40
2017-08-14T05:21:52.351Z,40
2017-08-14T05:24:16.814Z,40
2017-08-14T05:26:41.211Z,45
2017-08-14T05:29:05.585Z,45
2017-08-14T05:31:21.522Z,45
2017-08-14T05:33:45.856Z,50
2017-08-14T05:36:01.734Z,50
2017-08-14T05:38:26.028Z,55
2017-08-14T05:40:50.312Z,55
2017-08-14T05:43:16.644Z,60
2017-08-14T05:45:41.960Z,60
2017-08-14T05:49:41.909Z,60
2017-08-14T05:51:57.632Z,55
2017-08-14T05:55:58.053Z,70
2017-08-14T05:58:22.183Z,60
2017-08-14T06:00:46.388Z,55
2017-08-14T06:03:10.668Z,70
2017-08-14T06:05:34.709Z,65
2017-08-14T06:07:58.921Z,85
2017-08-14T06:10:24.196Z,95
2017-08-14T06:12:49.343Z,100
2017-08-14T06:15:15.574Z,110
2017-08-14T06:17:39.735Z,105
2017-08-14T06:20:04.064Z,115
2017-08-14T06:22:28.253Z,105
2017-08-14T06:25:07.484Z,110
2017-08-14T06:27:31.730Z,120
2017-08-14T06:29:55.976Z,125
2017-08-14T06:32:20.334Z,145
2017-08-14T06:34:46.704Z,225
2017-08-14T06:37:11.083Z,210
2017-08-14T06:41:11.699Z,295
2017-08-14T06:43:36.179Z,500
2017-08-14T06:46:00.691Z,330
2017-08-14T06:48:25.209Z,225
2017-08-14T06:50:49.904Z,205
2017-08-14T06:53:06.281Z,235
2017-08-14T06:55:32.054Z,225
2017-08-14T06:57:57.819Z,195
2017-08-14T07:01:58.641Z,185
2017-08-14T07:04:23.320Z,195
2017-08-14T07:06:47.841Z,190
2017-08-14T07:09:14.512Z,175
2017-08-14T07:13:48.545Z,175
2017-08-14T07:16:13.099Z,165
2017-08-14T07:18:37.659Z,180
2017-08-14T07:21:02.318Z,175
2017-08-14T07:23:26.794Z,195
2017-08-14T07:25:50.921Z,215
2017-08-14T07:28:15.504Z,260
2017-08-14T07:30:40.076Z,405
2017-08-14T07:33:04.652Z,270
2017-08-14T07:35:29.426Z,255
2017-08-14T07:39:30.862Z,255
2017-08-14T07:41:55.658Z,285
2017-08-14T07:44:20.533Z,250
2017-08-14T07:46:45.297Z,245
2017-08-14T07:49:09.690Z,265
2017-08-14T07:51:34.514Z,260
2017-08-14T07:53:59.381Z,250
2017-08-14T07:56:15.760Z,425
2017-08-14T07:58:40.627Z,390
2017-08-14T08:01:13.252Z,335
2017-08-14T08:03:38.236Z,470
2017-08-14T08:06:03.163Z,320
2017-08-14T08:08:19.704Z,585
2017-08-14T08:10:36.319Z,555
2017-08-14T08:13:01.551Z,515
2017-08-14T08:15:26.881Z,495
2017-08-14T08:17:52.559Z,525
2017-08-14T08:20:18.166Z,550
2017-08-14T08:22:43.794Z,560
2017-08-14T08:25:09.505Z,550
2017-08-14T08:27:35.248Z,585
2017-08-14T08:30:00.968Z,490
2017-08-14T08:32:26.753Z,635
2017-08-14T08:34:52.418Z,590
2017-08-14T08:37:18.071Z,610
2017-08-14T08:41:47.988Z,420
2017-08-14T08:44:13.864Z,500
2017-08-14T08:46:39.696Z,500
2017-08-14T08:49:05.515Z,580
2017-08-14T08:51:31.174Z,280
2017-08-14T08:53:56.883Z,500
2017-08-14T08:56:24.659Z,490
2017-08-14T08:58:50.556Z,285
2017-08-14T09:01:16.247Z,385
2017-08-14T09:03:41.966Z,300
2017-08-14T09:06:07.560Z,340
2017-08-14T09:08:33.305Z,300
2017-08-14T09:10:59.018Z,265
2017-08-14T09:13:24.759Z,285
2017-08-14T09:15:50.473Z,220
2017-08-14T09:18:16.172Z,310
2017-08-14T09:20:41.788Z,335
2017-08-14T09:23:08.432Z,160
2017-08-14T09:25:34.011Z,215
2017-08-14T09:27:59.679Z,180
2017-08-14T09:30:25.257Z,170
2017-08-14T09:32:50.699Z,250
2017-08-14T09:35:16.263Z,170
2017-08-14T09:37:42.707Z,175
2017-08-14T09:40:08.211Z,210
2017-08-14T09:42:33.683Z,265
2017-08-14T09:44:59.108Z,225
2017-08-14T09:47:24.498Z,200
2017-08-14T09:49:49.945Z,195
2017-08-14T09:52:15.541Z,210
2017-08-14T09:54:41.058Z,205
2017-08-14T09:57:06.691Z,200
2017-08-14T09:59:32.297Z,185
2017-08-14T10:04:09.246Z,145
2017-08-14T10:06:34.796Z,140
2017-08-14T10:09:00.444Z,145
2017-08-14T10:11:27.047Z,145
2017-08-14T10:13:52.775Z,145
2017-08-14T10:16:18.541Z,150
2017-08-14T10:18:44.006Z,150
2017-08-14T10:21:09.454Z,150
2017-08-14T10:23:34.878Z,160
2017-08-14T10:26:00.379Z,170
2017-08-14T10:28:26.812Z,160
2017-08-14T10:32:28.198Z,155
2017-08-14T10:34:53.627Z,140
2017-08-14T10:37:19.191Z,145
2017-08-14T10:39:44.708Z,140
2017-08-14T10:42:10.122Z,130
2017-08-14T10:44:35.485Z,135
2017-08-14T10:47:00.891Z,130
2017-08-14T10:49:26.205Z,145
2017-08-14T10:51:52.605Z,130
2017-08-14T10:54:17.996Z,130
2017-08-14T10:56:43.328Z,120
2017-08-14T10:59:08.781Z,80
2017-08-14T11:01:34.050Z,105
2017-08-14T11:03:59.346Z,100
2017-08-14T11:06:24.771Z,110
2017-08-14T11:08:50.190Z,115
2017-08-14T11:11:15.824Z,80
2017-08-14T11:13:40.990Z,85
2017-08-14T11:16:06.094Z,85
2017-08-14T11:18:31.330Z,95
2017-08-14T11:20:56.404Z,130
2017-08-14T11:23:21.636Z,80
2017-08-14T11:25:46.615Z,105
2017-08-14T11:28:11.786Z,100
2017-08-14T11:30:37.031Z,115
2017-08-14T11:33:03.266Z,100
2017-08-14T11:35:28.407Z,100
2017-08-14T11:37:53.562Z,75
2017-08-14T11:41:46.460Z,65
2017-08-14T11:44:11.569Z,90
2017-08-14T11:46:36.555Z,105
2017-08-14T11:49:01.630Z,105
2017-08-14T11:51:26.732Z,100
2017-08-14T11:53:51.735Z,80
2017-08-14T11:56:16.739Z,65
2017-08-14T11:58:41.657Z,65
2017-08-14T12:01:06.652Z,95
2017-08-14T12:03:31.658Z,90
2017-08-14T12:05:56.609Z,65
2017-08-14T12:08:21.574Z,100
2017-08-14T12:10:46.522Z,85
2017-08-14T12:13:11.438Z,90
2017-08-14T12:15:36.307Z,80
2017-08-14T12:18:01.211Z,90
2017-08-14T12:20:26.147Z,90
2017-08-14T12:22:51.129Z,70
2017-08-14T12:25:16.189Z,85
2017-08-14T12:27:41.412Z,90
2017-08-14T12:30:15.551Z,85
2017-08-14T12:32:40.393Z,85
2017-08-14T12:35:05.522Z,80
2017-08-14T12:37:21.908Z,80
2017-08-14T12:39:47.252Z,65
2017-08-14T12:42:12.418Z,90
2017-08-14T12:44:37.399Z,80
2017-08-14T12:47:02.923Z,90
2017-08-14T12:49:27.993Z,90
2017-08-14T12:51:53.715Z,70
2017-08-14T12:54:24.834Z,95
2017-08-14T13:00:02.822Z,85
2017-08-14T13:02:27.864Z,105
2017-08-14T13:04:53.140Z,90
2017-08-14T13:07:25.894Z,100
2017-08-14T13:09:50.816Z,90
2017-08-14T13:12:16.091Z,90
2017-08-14T13:14:41.108Z,90
2017-08-14T13:17:06.117Z,80
2017-08-14T13:21:10.570Z,90
2017-08-14T13:25:12.439Z,90
2017-08-14T13:27:52.628Z,90
2017-08-14T13:30:17.703Z,90
2017-08-14T13:32:42.973Z,75
2017-08-14T13:35:08.001Z,75
2017-08-14T13:37:32.978Z,65
2017-08-14T13:40:05.048Z,60
2017-08-14T13:42:30.826Z,55
2017-08-14T13:44:55.773Z,55
2017-08-14T13:47:20.764Z,70
2017-08-14T13:49:45.713Z,75
2017-08-14T13:52:11.213Z,55
2017-08-14T13:54:36.253Z,60
2017-08-14T13:57:01.156Z,60
2017-08-14T13:59:26.959Z,60
2017-08-14T14:01:52.234Z,75
2017-08-14T14:04:16.853Z,75
2017-08-14T14:08:46.157Z,75
2017-08-14T14:11:12.234Z,75
2017-08-14T14:13:37.092Z,75
2017-08-14T14:16:02.067Z,70
2017-08-14T14:18:27.198Z,75
2017-08-14T14:20:52.119Z,75
2017-08-14T14:23:17.123Z,75
2017-08-14T14:25:42.119Z,70
2017-08-14T14:28:07.177Z,70
2017-08-14T14:30:32.145Z,60
2017-08-14T14:32:57.162Z,65
2017-08-14T14:35:23.204Z,55
2017-08-14T14:37:48.285Z,60
2017-08-14T14:40:14.291Z,55
2017-08-14T14:42:39.205Z,55
2017-08-14T14:45:04.319Z,50
2017-08-14T14:47:29.097Z,55
2017-08-14T14:49:56.048Z,70
2017-08-14T14:52:12.559Z,70
2017-08-14T14:54:38.617Z,70
2017-08-14T14:57:04.616Z,70
2017-08-14T14:59:29.559Z,55
2017-08-14T15:01:56.338Z,55
2017-08-14T15:04:21.350Z,50
2017-08-14T15:06:46.344Z,50
2017-08-14T15:09:11.257Z,60
2017-08-14T15:11:38.318Z,70
2017-08-14T15:14:03.292Z,70
2017-08-14T15:16:28.370Z,70
2017-08-14T15:18:53.331Z,70
2017-08-14T15:21:18.417Z,70
2017-08-14T15:23:43.328Z,70
2017-08-14T15:26:16.352Z,65
2017-08-14T15:28:41.290Z,70
2017-08-14T15:31:06.212Z,60
2017-08-14T15:33:31.162Z,65
2017-08-14T15:37:58.280Z,60
2017-08-14T15:40:23.275Z,60
2017-08-14T15:42:48.247Z,55
2017-08-14T15:45:13.277Z,45
2017-08-14T15:47:38.195Z,45
2017-08-14T15:52:05.235Z,55
2017-08-14T15:54:30.189Z,50
2017-08-14T15:56:55.004Z,50
2017-08-14T15:59:20.057Z,45
2017-08-14T16:01:44.888Z,45
2017-08-14T16:04:09.696Z,50
2017-08-14T16:08:44.853Z,55
2017-08-14T16:11:09.727Z,45
2017-08-14T16:13:34.571Z,60
2017-08-14T16:15:59.447Z,60
2017-08-14T16:18:24.331Z,55
2017-08-14T16:22:59.862Z,60
2017-08-14T16:25:24.812Z,65
2017-08-14T16:27:49.710Z,60
2017-08-14T16:30:06.159Z,60
2017-08-14T16:32:31.115Z,55
2017-08-14T16:34:55.942Z,55
2017-08-14T16:37:20.859Z,55
2017-08-14T16:39:46.800Z,55
2017-08-14T16:42:11.734Z,55
2017-08-14T16:44:36.711Z,55
2017-08-14T16:47:01.655Z,55
2017-08-14T16:49:26.660Z,55
2017-08-14T16:51:51.547Z,55
2017-08-14T16:54:17.578Z,55
2017-08-14T16:56:44.458Z,50
2017-08-14T16:59:09.413Z,50
2017-08-14T17:01:34.651Z,50
2017-08-14T17:05:53.076Z,50
2017-08-14T17:08:09.552Z,50
2017-08-14T17:10:34.509Z,50
2017-08-14T17:15:10.118Z,50
2017-08-14T17:17:35.094Z,50
2017-08-14T17:22:02.186Z,45
2017-08-14T17:24:27.114Z,45
2017-08-14T17:26:52.036Z,45
2017-08-14T17:31:27.655Z,40
2017-08-14T17:33:52.628Z,40
2017-08-14T17:36:17.489Z,35
2017-08-14T17:38:42.382Z,35
2017-08-14T17:41:08.573Z,30
2017-08-14T17:43:33.851Z,30
2017-08-14T17:45:58.351Z,30
2017-08-14T17:48:25.296Z,25
2017-08-14T17:50:50.486Z,25
2017-08-14T17:53:15.189Z,25
2017-08-14T17:55:40.324Z,25
2017-08-14T18:00:29.922Z,20
2017-08-14T18:02:56.243Z,20
2017-08-14T18:05:14.687Z,20
2017-08-14T18:07:39.508Z,15
2017-08-14T18:12:15.007Z,15
2017-08-14T18:14:39.867Z,10
2017-08-14T18:17:04.691Z,10
2017-08-14T18:19:29.427Z,10
2017-08-14T18:21:54.246Z,10
2017-08-14T18:24:10.538Z,5
2017-08-14T18:26:35.261Z,5
2017-08-14T18:28:59.976Z,5
2017-08-14T18:31:24.789Z,5
2017-08-14T18:33:49.544Z,5
2017-08-14T18:36:14.416Z,0
2017-08-14T18:38:39.184Z,0
2017-08-14T18:41:04.026Z,0
2017-08-14T18:43:28.655Z,0
2017-08-14T18:45:53.419Z,0
2017-08-14T18:48:18.203Z,0
2017-08-14T18:50:42.975Z,0
2017-08-14T18:53:07.709Z,0
2017-08-14T18:55:32.573Z,0
2017-08-14T18:57:57.302Z,0
2017-08-14T19:00:29.961Z,0
2017-08-14T19:02:58.737Z,0
2017-08-14T19:05:25.588Z,0
2017-08-14T19:07:50.219Z,0
2017-08-14T19:10:14.927Z,0
2017-08-14T19:12:39.520Z,0
2017-08-14T19:15:04.491Z,0
2017-08-14T19:17:29.235Z,0
